Altona, Illinois
Current Conditions -  °F | °C
As of 3:35 AM on Saturday 20 Dec 2014 (Local Time) from KGBG Reporting Station
Overcast Overcast  
Wind Chill: 29°   Ceiling: 5000
Heat Index: 29°   Visibility: 10mi
Dew Point: 25°   Wind: 0mph
Humidity: 85%   Direction: NA
Pressure: 30.24"   Gusts: NA
Location:  41.11°N, 90.16°W
Report Text: KGBG 200935Z AUTO 00000KT 10SM OVC050 M01/M04 A3024 RMK AO2 T10151038
Loading
Personal Weather Stations






























Interactive Weather Map New forecast layout! Learn more

10-Day Weather Forecast

Advertisements
Track Severe Weather on mobile